CheckWX is a tool to help pilots better visualize weather data.  It is not intended as a substitute for an official pre-flight weather briefing.

09:31:27 UTC

CYQW METAR
North Battleford Airport
North Battleford, Canada
Current

21 mins ago

CYQW 200910Z AUTO 15004KT 9SM -SN OVC055 M15/M18 A2965 RMK SLP089
Observed
Feb-20 @ 09:10 UTC
Wind
  • 150° at 4 KTS
Visibility
14,484 meters
Flight Rules
VFR
Conditions
Light Snow
Cloud Levels
  • Overcast at 5,500' AGL
Temperature
-15°C / 5°F
Dewpoint
-18°C / -0°F
Humidity
78%
Altimeter
29.65" Hg
Pressure
1008.9 hPa
Previous

2 hours ago

CYQW 200800Z AUTO 11006KT 9SM SCT070 OVC120 M16/M19 A2966 RMK SLP092
Observed
Feb-20 @ 08:00 UTC
Wind
  • 110° at 6 KTS
Visibility
14,484 meters
Flight Rules
VFR
Cloud Levels
  • Scattered at 7,000' AGL
  • Overcast at 12,000' AGL
Temperature
-16°C / 3°F
Dewpoint
-19°C / -2°F
Humidity
78%
Altimeter
29.66" Hg
Pressure
1009.2 hPa
Previous

3 hours ago

CYQW 200700Z AUTO 15007KT 9SM OVC060 M16/M19 A2966 RMK SLP096
Observed
Feb-20 @ 07:00 UTC
Wind
  • 150° at 7 KTS
Visibility
14,484 meters
Flight Rules
VFR
Cloud Levels
  • Overcast at 6,000' AGL
Temperature
-16°C / 3°F
Dewpoint
-19°C / -2°F
Humidity
78%
Altimeter
29.66" Hg
Pressure
1009.6 hPa